createdAt,value
2018-07-23T00:01:00.139Z,54.13
2018-07-23T00:03:29.463Z,56.47
2018-07-23T00:05:58.520Z,57.60
2018-07-23T00:08:27.583Z,55.40
2018-07-23T00:10:56.637Z,54.73
2018-07-23T00:13:25.716Z,54.27
2018-07-23T00:15:54.768Z,53.93
2018-07-23T00:18:23.830Z,53.30
2018-07-23T00:20:52.887Z,51.00
2018-07-23T00:23:21.954Z,52.93
2018-07-23T00:25:51.008Z,54.77
2018-07-23T00:28:20.088Z,53.90
2018-07-23T00:30:49.143Z,50.00
2018-07-23T00:33:18.212Z,47.03
2018-07-23T00:35:47.255Z,50.20
2018-07-23T00:38:16.325Z,49.00
2018-07-23T00:40:45.384Z,45.83
2018-07-23T00:43:14.443Z,46.73
2018-07-23T00:45:43.512Z,44.13
2018-07-23T00:48:12.554Z,43.60
2018-07-23T00:50:41.622Z,37.43
2018-07-23T00:53:10.418Z,41.40
2018-07-23T00:55:39.358Z,43.17
2018-07-23T00:58:08.408Z,44.37
2018-07-23T01:00:37.227Z,44.90
2018-07-23T01:03:06.844Z,47.20
2018-07-23T01:05:38.004Z,43.60
2018-07-23T01:08:07.488Z,43.50
2018-07-23T01:10:36.592Z,42.23
2018-07-23T01:13:05.752Z,43.37
2018-07-23T01:15:34.824Z,44.93
2018-07-23T01:18:03.893Z,45.30
2018-07-23T01:20:32.984Z,48.87
2018-07-23T01:23:02.057Z,49.43
2018-07-23T01:25:31.144Z,49.70
2018-07-23T01:28:00.212Z,48.43
2018-07-23T01:30:29.300Z,50.43
2018-07-23T01:32:58.404Z,52.00
2018-07-23T01:35:27.499Z,53.63
2018-07-23T01:37:56.572Z,51.80
2018-07-23T01:40:25.667Z,49.17
2018-07-23T01:42:54.740Z,47.87
2018-07-23T01:45:23.827Z,48.57
2018-07-23T01:47:52.891Z,47.37
2018-07-23T01:50:21.732Z,48.70
2018-07-23T01:52:50.678Z,50.93
2018-07-23T01:55:19.507Z,51.77
2018-07-23T01:57:48.450Z,50.63
2018-07-23T02:00:17.569Z,50.23
2018-07-23T02:02:46.643Z,51.67
2018-07-23T02:05:15.727Z,50.63
2018-07-23T02:07:44.795Z,46.40
2018-07-23T02:10:13.922Z,42.63
2018-07-23T02:12:43.004Z,41.43
2018-07-23T02:15:12.084Z,41.40
2018-07-23T02:17:41.149Z,41.90
2018-07-23T02:20:10.224Z,41.13
2018-07-23T02:22:39.055Z,41.50
2018-07-23T02:25:08.002Z,38.40
2018-07-23T02:27:36.823Z,38.17
2018-07-23T02:30:05.523Z,46.23
2018-07-23T02:32:34.484Z,50.03
2018-07-23T02:35:03.298Z,50.97
2018-07-23T02:37:32.252Z,46.93
2018-07-23T02:40:01.316Z,45.60
2018-07-23T02:42:30.399Z,46.17
2018-07-23T02:44:59.460Z,49.87
2018-07-23T02:47:28.287Z,47.83
2018-07-23T02:49:57.228Z,46.17
2018-07-23T02:52:26.322Z,43.30
2018-07-23T02:54:55.175Z,44.03
2018-07-23T02:57:24.140Z,44.30
2018-07-23T02:59:53.205Z,46.13
2018-07-23T03:02:22.048Z,55.90
2018-07-23T03:04:51.008Z,51.03
2018-07-23T03:07:20.092Z,44.87
2018-07-23T03:09:49.160Z,45.33
2018-07-23T03:12:18.256Z,46.93
2018-07-23T03:14:47.350Z,47.33
2018-07-23T03:17:16.437Z,44.63
2018-07-23T03:19:45.495Z,46.50
2018-07-23T03:22:14.592Z,48.13
2018-07-23T03:24:43.659Z,49.53
2018-07-23T03:27:12.736Z,40.50
2018-07-23T03:29:41.904Z,39.90
2018-07-23T03:32:10.988Z,45.53
2018-07-23T03:34:40.044Z,49.97
2018-07-23T03:37:09.120Z,47.20
2018-07-23T03:39:38.192Z,48.23
2018-07-23T03:42:07.268Z,49.13
2018-07-23T03:44:36.340Z,47.70
2018-07-23T03:47:05.203Z,49.20
2018-07-23T03:49:34.139Z,45.70
2018-07-23T03:52:03.204Z,47.23
2018-07-23T03:54:32.281Z,47.47
2018-07-23T03:57:01.340Z,44.73
2018-07-23T03:59:30.425Z,45.67
2018-07-23T04:01:59.491Z,48.80
2018-07-23T04:04:28.584Z,47.33
2018-07-23T04:06:57.640Z,45.53
2018-07-23T04:09:26.720Z,50.13
2018-07-23T04:11:55.808Z,43.37
2018-07-23T04:14:25.263Z,45.73
2018-07-23T04:16:54.344Z,53.77
2018-07-23T04:19:23.435Z,50.83
2018-07-23T04:21:52.507Z,49.07
2018-07-23T04:24:21.599Z,46.37
2018-07-23T04:26:50.668Z,46.00
2018-07-23T04:29:19.535Z,45.57
2018-07-23T04:31:48.483Z,46.67
2018-07-23T04:34:17.579Z,45.17
2018-07-23T04:36:46.656Z,44.80
2018-07-23T04:39:15.752Z,41.63
2018-07-23T04:41:44.828Z,42.20
2018-07-23T04:44:13.995Z,44.90
2018-07-23T04:46:43.068Z,45.23
2018-07-23T04:49:12.186Z,41.77
2018-07-23T04:51:41.327Z,42.73
2018-07-23T04:54:10.175Z,41.40
2018-07-23T04:56:39.177Z,42.57
2018-07-23T04:59:08.245Z,42.93
2018-07-23T05:01:37.369Z,45.07
2018-07-23T05:04:06.460Z,47.03
2018-07-23T05:06:35.540Z,41.40
2018-07-23T05:09:08.444Z,44.33
2018-07-23T05:11:37.523Z,41.67
2018-07-23T05:14:07.231Z,39.40
2018-07-23T05:16:36.431Z,40.20
2018-07-23T05:19:05.563Z,41.27
2018-07-23T05:21:34.636Z,42.43
2018-07-23T05:24:03.736Z,40.30
2018-07-23T05:26:32.817Z,38.23
2018-07-23T05:29:01.916Z,36.07
2018-07-23T05:31:31.016Z,34.10
2018-07-23T05:34:00.088Z,35.93
2018-07-23T05:36:29.180Z,36.57
2018-07-23T05:38:58.252Z,34.30
2018-07-23T05:41:27.095Z,34.37
2018-07-23T05:43:56.037Z,34.97
2018-07-23T05:46:24.871Z,34.23
2018-07-23T05:48:53.815Z,33.30
2018-07-23T05:51:22.907Z,35.50
2018-07-23T05:53:51.976Z,35.93
2018-07-23T05:56:21.068Z,36.93
2018-07-23T05:58:50.188Z,33.90
2018-07-23T06:01:19.473Z,32.87
2018-07-23T06:03:48.674Z,33.40
2018-07-23T06:06:17.797Z,33.07
2018-07-23T06:08:46.868Z,29.77
2018-07-23T06:11:15.960Z,30.87
2018-07-23T06:13:44.795Z,28.37
2018-07-23T06:16:13.761Z,29.20
2018-07-23T06:18:42.823Z,28.70
2018-07-23T06:21:11.912Z,26.70
2018-07-23T06:23:41.011Z,28.40
2018-07-23T06:26:10.103Z,25.57
2018-07-23T06:28:39.159Z,25.87
2018-07-23T06:31:08.248Z,27.90
2018-07-23T06:33:37.311Z,27.17
2018-07-23T06:36:06.423Z,27.77
2018-07-23T06:38:35.483Z,27.40
2018-07-23T06:41:04.567Z,24.30
2018-07-23T06:43:33.624Z,21.77
2018-07-23T06:46:02.719Z,21.93
2018-07-23T06:48:31.788Z,22.53
2018-07-23T06:51:00.879Z,22.17
2018-07-23T06:53:29.948Z,23.90
2018-07-23T06:55:59.052Z,23.40
2018-07-23T06:58:28.116Z,22.33
2018-07-23T07:00:57.194Z,21.23
2018-07-23T07:03:26.309Z,21.37
2018-07-23T07:05:55.123Z,20.83
2018-07-23T07:08:23.835Z,20.03
2018-07-23T07:10:52.779Z,19.87
2018-07-23T07:13:21.694Z,20.13
2018-07-23T07:15:50.592Z,17.80
2018-07-23T07:18:19.767Z,17.77
2018-07-23T07:20:48.579Z,19.13
2018-07-23T07:23:17.544Z,19.07
2018-07-23T07:25:46.357Z,19.63
2018-07-23T07:28:15.062Z,17.27
2018-07-23T07:30:44.000Z,18.43
2018-07-23T07:33:13.079Z,17.30
2018-07-23T07:35:42.160Z,19.20
2018-07-23T07:38:11.286Z,16.97
2018-07-23T07:40:40.752Z,16.27
2018-07-23T07:43:09.884Z,14.43
2018-07-23T07:45:38.959Z,15.30
2018-07-23T07:48:08.039Z,14.40
2018-07-23T07:50:37.100Z,11.70
2018-07-23T07:53:06.194Z,12.70
2018-07-23T07:55:35.248Z,13.30
2018-07-23T07:58:04.372Z,11.80
2018-07-23T08:00:33.436Z,10.37
2018-07-23T08:03:02.528Z,10.23
2018-07-23T08:05:31.599Z,9.40
2018-07-23T08:08:00.684Z,9.27
2018-07-23T08:10:29.752Z,12.70
2018-07-23T08:12:58.871Z,11.33
2018-07-23T08:15:27.952Z,10.17
2018-07-23T08:17:56.865Z,9.90
2018-07-23T08:20:25.792Z,10.70
2018-07-23T08:22:54.888Z,10.23
2018-07-23T08:25:24.003Z,10.60
2018-07-23T08:27:53.182Z,10.27
2018-07-23T08:30:22.216Z,10.17
2018-07-23T08:32:51.283Z,10.60
2018-07-23T08:35:20.367Z,10.33
2018-07-23T08:37:49.436Z,10.43
2018-07-23T08:40:18.526Z,10.00
2018-07-23T08:42:47.600Z,10.60
2018-07-23T08:45:16.684Z,9.97
2018-07-23T08:47:45.756Z,10.27
2018-07-23T08:50:14.852Z,9.47
2018-07-23T08:52:43.941Z,9.30
2018-07-23T08:55:13.088Z,8.77
2018-07-23T08:57:41.903Z,8.97
2018-07-23T09:00:10.611Z,8.67
2018-07-23T09:02:39.556Z,8.63
2018-07-23T09:05:08.640Z,8.40
2018-07-23T09:07:37.712Z,8.53
2018-07-23T09:10:06.804Z,9.13
2018-07-23T09:12:35.884Z,8.30
2018-07-23T09:15:05.168Z,8.00
2018-07-23T09:17:34.290Z,7.90
2018-07-23T09:20:04.021Z,7.43
2018-07-23T09:22:33.502Z,7.70
2018-07-23T09:25:02.699Z,7.20
2018-07-23T09:27:31.764Z,7.90
2018-07-23T09:30:00.583Z,8.10
2018-07-23T09:32:29.521Z,8.30
2018-07-23T09:34:58.615Z,7.40
2018-07-23T09:37:27.688Z,7.23
2018-07-23T09:39:56.764Z,8.20
2018-07-23T09:42:25.821Z,7.43
2018-07-23T09:44:54.892Z,6.80
2018-07-23T09:47:23.951Z,6.20
2018-07-23T09:49:53.023Z,6.07
2018-07-23T09:52:21.900Z,5.33
2018-07-23T09:54:50.851Z,5.80
2018-07-23T09:57:19.908Z,4.97
2018-07-23T09:59:48.996Z,4.73
2018-07-23T10:02:17.796Z,4.10
2018-07-23T10:04:46.740Z,5.37
2018-07-23T10:07:15.808Z,5.67
2018-07-23T10:09:44.880Z,5.60
2018-07-23T10:12:14.052Z,5.20
2018-07-23T10:14:43.104Z,7.83
2018-07-23T10:17:12.185Z,7.03
2018-07-23T10:19:41.235Z,7.33
2018-07-23T10:22:10.332Z,7.30
2018-07-23T10:24:39.383Z,7.60
2018-07-23T10:27:08.612Z,7.20
2018-07-23T10:29:37.672Z,6.80
2018-07-23T10:32:06.747Z,4.90
2018-07-23T10:34:35.799Z,5.20
2018-07-23T10:37:04.880Z,5.93
2018-07-23T10:39:33.940Z,5.07
2018-07-23T10:42:03.032Z,4.90
2018-07-23T10:44:32.111Z,4.97
2018-07-23T10:47:01.207Z,4.63
2018-07-23T10:49:30.915Z,5.00
2018-07-23T10:51:59.991Z,4.40
2018-07-23T10:54:29.055Z,5.70
2018-07-23T10:56:58.138Z,5.40
2018-07-23T10:59:27.212Z,4.50
2018-07-23T11:01:56.049Z,5.00
2018-07-23T11:04:25.624Z,5.13
2018-07-23T11:06:54.699Z,5.40
2018-07-23T11:09:23.538Z,4.80
2018-07-23T11:11:52.484Z,5.20
2018-07-23T11:14:21.396Z,5.17
2018-07-23T11:16:50.120Z,5.00
2018-07-23T11:19:19.070Z,4.93
2018-07-23T11:21:48.353Z,4.87
2018-07-23T11:24:17.452Z,4.90
2018-07-23T11:26:46.580Z,5.00
2018-07-23T11:29:15.648Z,5.07
2018-07-23T11:31:44.734Z,4.90
2018-07-23T11:34:13.816Z,5.07
2018-07-23T11:36:42.881Z,4.62
2018-07-23T11:39:12.499Z,4.70
2018-07-23T11:41:41.626Z,4.80
2018-07-23T11:44:10.660Z,4.93
2018-07-23T11:46:39.740Z,4.90
2018-07-23T11:49:08.832Z,4.60
2018-07-23T11:51:37.634Z,5.08
2018-07-23T11:54:06.740Z,4.40
2018-07-23T11:56:35.852Z,4.53
2018-07-23T11:59:04.920Z,4.17
2018-07-23T12:01:33.731Z,4.62
2018-07-23T12:04:03.528Z,4.83
2018-07-23T12:06:32.596Z,4.40
2018-07-23T12:09:01.717Z,4.25
2018-07-23T12:11:30.856Z,4.03
2018-07-23T12:13:59.968Z,3.92
2018-07-23T12:16:29.091Z,3.75
2018-07-23T12:18:58.100Z,4.67
2018-07-23T12:21:27.040Z,4.42
2018-07-23T12:23:56.135Z,4.75
2018-07-23T12:26:25.220Z,4.05
2018-07-23T12:28:54.307Z,3.98
2018-07-23T12:31:23.374Z,4.12
2018-07-23T12:33:52.231Z,4.30
2018-07-23T12:36:21.180Z,3.70
2018-07-23T12:38:50.275Z,4.67
2018-07-23T12:41:19.339Z,3.80
2018-07-23T12:43:48.603Z,3.87
2018-07-23T12:46:17.671Z,3.50
2018-07-23T12:48:46.731Z,4.35
2018-07-23T12:51:15.808Z,3.72
2018-07-23T12:53:44.875Z,3.75
2018-07-23T12:56:14.049Z,3.58
2018-07-23T12:58:43.115Z,3.45
2018-07-23T13:01:12.395Z,3.52
2018-07-23T13:03:41.468Z,3.67
2018-07-23T13:06:10.545Z,3.52
2018-07-23T13:08:39.613Z,3.87
2018-07-23T13:11:08.563Z,3.90
2018-07-23T13:13:37.520Z,3.42
2018-07-23T13:16:06.600Z,3.50
2018-07-23T13:18:35.566Z,3.27
2018-07-23T13:21:04.520Z,3.67
2018-07-23T13:23:33.623Z,3.72
2018-07-23T13:26:02.704Z,3.70
2018-07-23T13:28:31.785Z,3.60
2018-07-23T13:31:00.608Z,3.37
2018-07-23T13:33:29.548Z,3.70
2018-07-23T13:35:58.662Z,3.52
2018-07-23T13:38:27.728Z,3.55
2018-07-23T13:40:56.814Z,3.90
2018-07-23T13:43:25.880Z,4.25
2018-07-23T13:45:54.971Z,3.65
2018-07-23T13:48:24.060Z,3.52
2018-07-23T13:50:53.187Z,3.70
2018-07-23T13:53:22.255Z,3.80
2018-07-23T13:55:51.343Z,3.75
2018-07-23T13:58:20.150Z,3.00
2018-07-23T14:00:48.860Z,3.95
2018-07-23T14:03:17.796Z,3.70
2018-07-23T14:05:47.075Z,3.42
2018-07-23T14:08:16.011Z,3.90
2018-07-23T14:10:45.126Z,3.50
2018-07-23T14:13:14.208Z,3.65
2018-07-23T14:15:43.276Z,3.40
2018-07-23T14:18:12.103Z,3.50
2018-07-23T14:20:40.791Z,3.77
2018-07-23T14:23:09.751Z,3.30
2018-07-23T14:25:38.673Z,3.98
2018-07-23T14:28:07.644Z,3.90
2018-07-23T14:30:36.705Z,3.30
2018-07-23T14:33:05.971Z,3.47
2018-07-23T14:35:35.036Z,3.20
2018-07-23T14:38:03.862Z,3.87
2018-07-23T14:40:32.969Z,3.33
2018-07-23T14:43:02.043Z,3.35
2018-07-23T14:45:31.107Z,3.30
2018-07-23T14:48:00.196Z,3.60
2018-07-23T14:50:29.252Z,3.40
2018-07-23T14:52:58.347Z,3.30
2018-07-23T14:55:27.631Z,3.62
2018-07-23T14:57:56.712Z,3.70
2018-07-23T15:00:25.789Z,3.98
2018-07-23T15:02:54.675Z,3.60
2018-07-23T15:05:23.621Z,3.37
2018-07-23T15:07:52.823Z,3.00
2018-07-23T15:10:22.107Z,3.10
2018-07-23T15:12:51.211Z,3.25
2018-07-23T15:15:20.284Z,3.35
2018-07-23T15:17:49.389Z,3.42
2018-07-23T15:20:18.456Z,3.17
2018-07-23T15:22:47.278Z,3.00
2018-07-23T15:25:15.963Z,2.80
2018-07-23T15:27:44.818Z,3.20
2018-07-23T15:30:13.758Z,3.02
2018-07-23T15:32:42.931Z,3.33
2018-07-23T15:35:11.744Z,3.47
2018-07-23T15:37:40.781Z,3.22
2018-07-23T15:40:09.873Z,3.47
2018-07-23T15:42:38.990Z,2.90
2018-07-23T15:45:08.143Z,3.00
2018-07-23T15:47:37.204Z,2.75
2018-07-23T15:50:06.283Z,3.10
2018-07-23T15:52:35.599Z,3.45
2018-07-23T15:55:04.791Z,2.90
2018-07-23T15:57:33.598Z,3.02
2018-07-23T16:00:02.299Z,3.02
2018-07-23T16:02:31.014Z,3.17
2018-07-23T16:04:59.971Z,3.20
2018-07-23T16:07:29.030Z,3.40
2018-07-23T16:09:58.104Z,3.20
2018-07-23T16:12:27.195Z,3.52
2018-07-23T16:14:56.279Z,3.20
2018-07-23T16:17:25.423Z,3.55
2018-07-23T16:19:54.507Z,3.33
2018-07-23T16:22:23.583Z,3.42
2018-07-23T16:24:52.667Z,3.12
2018-07-23T16:27:21.731Z,3.87
2018-07-23T16:29:50.811Z,3.40
2018-07-23T16:32:19.618Z,3.83
2018-07-23T16:34:48.571Z,3.80
2018-07-23T16:37:17.635Z,3.37
2018-07-23T16:39:46.715Z,3.45
2018-07-23T16:42:15.773Z,3.35
2018-07-23T16:44:44.847Z,3.33
2018-07-23T16:47:13.916Z,3.17
2018-07-23T16:49:42.991Z,3.17
2018-07-23T16:52:12.057Z,3.22
2018-07-23T16:54:41.145Z,3.30
2018-07-23T16:57:10.248Z,3.40
2018-07-23T16:59:39.331Z,3.10
2018-07-23T17:02:08.403Z,3.55
2018-07-23T17:04:37.519Z,3.40
2018-07-23T17:07:06.615Z,3.00
2018-07-23T17:09:35.687Z,3.37
2018-07-23T17:12:04.767Z,3.40
2018-07-23T17:14:33.859Z,3.75
2018-07-23T17:17:02.932Z,3.90
2018-07-23T17:19:31.740Z,3.87
2018-07-23T17:22:00.434Z,3.80
2018-07-23T17:24:29.118Z,3.72
2018-07-23T17:26:58.087Z,3.55
2018-07-23T17:29:27.147Z,4.00
2018-07-23T17:31:56.334Z,3.80
2018-07-23T17:34:25.468Z,4.03
2018-07-23T17:36:54.563Z,3.90
2018-07-23T17:39:23.619Z,4.50
2018-07-23T17:41:52.704Z,4.45
2018-07-23T17:44:22.023Z,4.40
2018-07-23T17:46:51.108Z,4.22
2018-07-23T17:49:20.166Z,4.12
2018-07-23T17:51:49.252Z,3.90
2018-07-23T17:54:18.347Z,3.75
2018-07-23T17:56:47.427Z,4.30
2018-07-23T17:59:16.492Z,3.50
2018-07-23T18:01:45.571Z,3.90
2018-07-23T18:04:14.651Z,3.58
2018-07-23T18:06:43.719Z,3.70
2018-07-23T18:09:13.578Z,3.80
2018-07-23T18:11:43.021Z,3.60
2018-07-23T18:14:12.132Z,3.72
2018-07-23T18:16:41.353Z,3.60
2018-07-23T18:19:10.207Z,4.00
2018-07-23T18:21:39.150Z,3.47
2018-07-23T18:24:08.204Z,3.40
2018-07-23T18:26:37.275Z,3.98
2018-07-23T18:29:06.331Z,3.95
2018-07-23T18:31:35.419Z,3.62
2018-07-23T18:34:04.468Z,3.87
2018-07-23T18:36:33.523Z,3.75
2018-07-23T18:39:02.587Z,3.75
2018-07-23T18:41:31.644Z,3.55
2018-07-23T18:44:00.715Z,3.72
2018-07-23T18:46:29.767Z,3.75
2018-07-23T18:49:21.567Z,3.77
2018-07-23T18:51:51.600Z,3.60
2018-07-23T18:54:21.876Z,3.45
2018-07-23T18:56:52.980Z,3.40
2018-07-23T18:59:22.035Z,3.62
2018-07-23T19:01:52.073Z,4.08
2018-07-23T19:04:21.160Z,4.17
2018-07-23T19:06:50.451Z,3.63
2018-07-23T19:09:20.692Z,4.10
2018-07-23T19:11:50.803Z,3.87
2018-07-23T19:14:20.084Z,3.50
2018-07-23T19:16:49.802Z,4.10
2018-07-23T19:19:18.881Z,3.80
2018-07-23T19:21:47.671Z,4.07
2018-07-23T19:24:16.632Z,4.13
2018-07-23T19:26:45.707Z,3.80
2018-07-23T19:29:14.790Z,4.13
2018-07-23T19:31:43.836Z,4.90
2018-07-23T19:34:12.904Z,4.20
2018-07-23T19:36:41.964Z,4.20
2018-07-23T19:39:12.510Z,3.67
2018-07-23T19:41:41.604Z,3.90
2018-07-23T19:44:11.118Z,4.50
2018-07-23T19:46:40.399Z,4.00
2018-07-23T19:49:09.474Z,4.27
2018-07-23T19:51:38.510Z,3.80
2018-07-23T19:54:08.218Z,3.80
2018-07-23T19:56:37.266Z,3.90
2018-07-23T19:59:06.415Z,6.57
2018-07-23T20:01:35.468Z,4.57
2018-07-23T20:04:04.278Z,4.00
2018-07-23T20:06:32.948Z,4.77
2018-07-23T20:09:02.441Z,4.90
2018-07-23T20:11:31.512Z,4.63
2018-07-23T20:14:00.596Z,4.13
2018-07-23T20:16:29.647Z,4.10
2018-07-23T20:18:58.724Z,4.00
2018-07-23T20:21:27.767Z,3.50
2018-07-23T20:23:56.873Z,3.90
2018-07-23T20:26:25.951Z,3.83
2018-07-23T20:28:55.012Z,3.80
2018-07-23T20:31:23.826Z,4.20
2018-07-23T20:33:52.506Z,3.87
2018-07-23T20:36:21.512Z,3.33
2018-07-23T20:38:50.612Z,3.80
2018-07-23T20:41:19.666Z,3.40
2018-07-23T20:43:48.720Z,4.10
2018-07-23T20:46:17.788Z,4.07
2018-07-23T20:48:46.842Z,4.00
2018-07-23T20:51:15.928Z,4.20
2018-07-23T20:53:44.976Z,4.27
2018-07-23T20:56:14.036Z,4.40
2018-07-23T20:58:43.086Z,4.30
2018-07-23T21:01:12.145Z,3.87
2018-07-23T21:03:41.191Z,4.00
2018-07-23T21:06:10.255Z,4.27
2018-07-23T21:08:39.302Z,4.47
2018-07-23T21:11:08.368Z,4.40
2018-07-23T21:13:37.430Z,3.97
2018-07-23T21:16:06.259Z,4.37
2018-07-23T21:18:35.191Z,4.20
2018-07-23T21:21:04.254Z,4.40
2018-07-23T21:23:33.311Z,4.33
2018-07-23T21:26:02.384Z,4.67
2018-07-23T21:28:31.430Z,4.37
2018-07-23T21:31:00.503Z,4.10
2018-07-23T21:33:29.551Z,4.10
2018-07-23T21:35:58.653Z,4.30
2018-07-23T21:38:27.700Z,4.53
2018-07-23T21:40:56.766Z,4.57
2018-07-23T21:43:25.563Z,4.70
2018-07-23T21:45:54.507Z,4.50
2018-07-23T21:48:23.555Z,4.60
2018-07-23T21:50:52.390Z,4.27
2018-07-23T21:53:21.312Z,4.43
2018-07-23T21:55:50.379Z,4.90
2018-07-23T21:58:19.438Z,4.90
2018-07-23T22:00:48.525Z,5.00
2018-07-23T22:03:17.572Z,5.10
2018-07-23T22:05:46.623Z,5.20
2018-07-23T22:08:15.697Z,5.17
2018-07-23T22:10:44.748Z,4.97
2018-07-23T22:13:13.835Z,5.17
2018-07-23T22:15:42.884Z,5.60
2018-07-23T22:18:11.947Z,5.07
2018-07-23T22:20:40.991Z,5.00
2018-07-23T22:23:10.055Z,4.93
2018-07-23T22:25:39.107Z,4.40
2018-07-23T22:28:08.183Z,4.40
2018-07-23T22:30:36.980Z,4.10
2018-07-23T22:33:06.172Z,4.37
2018-07-23T22:35:34.995Z,4.40
2018-07-23T22:38:03.935Z,4.60
2018-07-23T22:40:33.272Z,4.67
2018-07-23T22:43:02.345Z,4.80
2018-07-23T22:45:31.395Z,4.73
2018-07-23T22:48:00.462Z,4.17
2018-07-23T22:50:29.503Z,4.57
2018-07-23T22:52:58.574Z,4.50
2018-07-23T22:55:27.643Z,4.80
2018-07-23T22:57:56.723Z,4.90
2018-07-23T23:00:25.547Z,5.00
2018-07-23T23:02:54.495Z,5.13
2018-07-23T23:05:23.544Z,5.30
2018-07-23T23:07:52.614Z,5.80
2018-07-23T23:10:21.659Z,5.97
2018-07-23T23:12:50.748Z,5.83
2018-07-23T23:15:19.799Z,6.10
2018-07-23T23:17:48.867Z,6.90
2018-07-23T23:20:17.915Z,6.73
2018-07-23T23:22:46.978Z,5.80
2018-07-23T23:25:16.028Z,6.73
2018-07-23T23:27:45.111Z,6.87
2018-07-23T23:30:14.171Z,6.70
2018-07-23T23:32:43.238Z,7.27
2018-07-23T23:35:12.339Z,7.50
2018-07-23T23:37:41.384Z,7.90
2018-07-23T23:40:10.464Z,7.37
2018-07-23T23:42:39.507Z,7.00
2018-07-23T23:45:08.583Z,8.03
2018-07-23T23:47:37.635Z,9.47
2018-07-23T23:50:07.278Z,7.77
2018-07-23T23:52:36.369Z,7.93
2018-07-23T23:55:05.476Z,7.77
2018-07-23T23:57:34.522Z,7.93
